Time;durP1;ratioP1;P1;durP2;ratioP2;P2;SDS_P1;SDS_P2;PMS_P1;PMS_P2;Temp;Humidity;BMP_temperature;BMP_pressure;BME280_temperature;BME280_humidity;BME280_pressure;Samples;Min_cycle;Max_cycle;Signal;HPM_P1;HPM_P2
2023/05/28 00:01:49;;;;;;;;;;;;;;;20.46;100.00;99650.94;5044431;28;19917;-85
2023/05/28 00:04:15;;;;;;;;;;;;;;;20.46;100.00;99656.31;5018674;28;20032;-87
2023/05/28 00:06:41;;;;;;;;;;;;;;;20.26;100.00;99663.47;5014152;28;19995;-87
2023/05/28 00:09:07;;;;;;;;;;;;;;;20.13;100.00;99676.81;5019010;28;20378;-84
2023/05/28 00:11:32;;;;;;;;;;;;;;;20.03;100.00;99678.00;5018865;28;20330;-87
2023/05/28 00:13:57;;;;;;;;;;;;;;;19.98;100.00;99680.47;5016732;28;19956;-87
2023/05/28 00:16:23;;;;;;;;;;;;;;;19.95;100.00;99680.88;5012793;28;19918;-87
2023/05/28 00:18:48;;;;;;;;;;;;;;;19.97;100.00;99686.84;5017642;28;19923;-87
2023/05/28 00:21:13;;;;;;;;;;;;;;;19.92;100.00;99680.44;5011593;28;20297;-87
2023/05/28 00:23:39;;;;;;;;;;;;;;;19.80;100.00;99688.22;5017407;28;19940;-88
2023/05/28 00:26:04;;;;;;;;;;;;;;;19.70;100.00;99693.09;5009670;28;20027;-87
2023/05/28 00:28:29;;;;;;;;;;;;;;;19.63;100.00;99692.25;5019357;28;19922;-87
2023/05/28 00:30:55;;;;;;;;;;;;;;;19.58;100.00;99689.34;5019662;28;20302;-87
2023/05/28 00:33:22;;;;;;;;;;;;;;;19.61;100.00;99689.75;5029433;28;19924;-88
2023/05/28 00:35:47;;;;;;;;;;;;;;;19.59;100.00;99701.69;5013817;28;20528;-88
2023/05/28 00:38:12;;;;;;;;;;;;;;;19.66;100.00;99697.22;5016325;28;20023;-86
2023/05/28 00:40:42;;;;;;;;;;;;;;;19.72;100.00;99695.59;5013556;28;20025;-86
2023/05/28 00:43:07;;;;;;;;;;;;;;;19.76;100.00;99692.31;5013504;28;19929;-86
2023/05/28 00:45:32;;;;;;;;;;;;;;;19.81;100.00;99705.94;5013141;28;20216;-87
2023/05/28 00:47:58;;;;;;;;;;;;;;;19.79;100.00;99702.63;5013531;28;20281;-88
2023/05/28 00:50:25;;;;;;;;;;;;;;;19.62;100.00;99701.28;5013305;28;19925;-87
2023/05/28 00:52:51;;;;;;;;;;;;;;;19.55;100.00;99700.44;5027937;28;20441;-87
2023/05/28 00:55:17;;;;;;;;;;;;;;;19.42;100.00;99694.97;5024172;28;20050;-87
2023/05/28 00:57:43;;;;;;;;;;;;;;;19.26;100.00;99697.97;5010880;28;20004;-88
2023/05/28 01:00:09;;;;;;;;;;;;;;;19.21;100.00;99699.34;5025857;28;19921;-86
2023/05/28 01:02:34;;;;;;;;;;;;;;;19.24;100.00;99698.16;5014199;28;19921;-87
2023/05/28 01:05:02;;;;;;;;;;;;;;;19.29;100.00;99697.56;5017312;28;19924;-87
2023/05/28 01:07:28;;;;;;;;;;;;;;;19.30;100.00;99691.19;5009598;28;20247;-87
2023/05/28 01:09:54;;;;;;;;;;;;;;;19.28;100.00;99693.22;5018636;28;19917;-87
2023/05/28 01:12:20;;;;;;;;;;;;;;;19.27;100.00;99702.25;5016004;28;19939;-87
2023/05/28 01:14:47;;;;;;;;;;;;;;;19.31;100.00;99693.69;5019709;28;19964;-88
2023/05/28 01:17:12;;;;;;;;;;;;;;;19.34;100.00;99687.91;5020397;28;19918;-87
2023/05/28 01:19:39;;;;;;;;;;;;;;;19.34;100.00;99690.59;5023593;28;19917;-87
2023/05/28 01:22:05;;;;;;;;;;;;;;;19.21;100.00;99699.34;5053082;28;19984;-87
2023/05/28 01:24:35;;;;;;;;;;;;;;;19.15;100.00;99689.44;5022348;28;20359;-86
2023/05/28 01:27:01;;;;;;;;;;;;;;;19.08;100.00;99693.94;5019159;28;19917;-87
2023/05/28 01:29:27;;;;;;;;;;;;;;;19.04;100.00;99700.66;5020084;28;19972;-87
2023/05/28 01:31:52;;;;;;;;;;;;;;;19.10;100.00;99707.91;5023897;28;19918;-85
2023/05/28 01:34:18;;;;;;;;;;;;;;;19.17;100.00;99713.31;5022389;28;19981;-87
2023/05/28 01:36:45;;;;;;;;;;;;;;;19.23;100.00;99718.72;5016771;28;19917;-88
2023/05/28 01:39:13;;;;;;;;;;;;;;;19.25;100.00;99720.38;5007497;28;19917;-89
2023/05/28 01:41:39;;;;;;;;;;;;;;;19.27;100.00;99718.31;5011446;28;20408;-88
2023/05/28 01:44:06;;;;;;;;;;;;;;;19.26;100.00;99716.69;5008209;28;19929;-88
2023/05/28 01:46:33;;;;;;;;;;;;;;;19.22;100.00;99719.75;5027454;28;20727;-89
2023/05/28 01:48:58;;;;;;;;;;;;;;;19.22;100.00;99722.41;5012482;28;20390;-88
2023/05/28 01:51:24;;;;;;;;;;;;;;;19.26;100.00;99722.88;5027271;28;19925;-88
2023/05/28 01:53:50;;;;;;;;;;;;;;;19.29;100.00;99721.63;5039661;28;19921;-88
2023/05/28 01:56:16;;;;;;;;;;;;;;;19.27;100.00;99718.31;5020542;28;20400;-87
2023/05/28 01:58:42;;;;;;;;;;;;;;;19.25;100.00;99731.09;5011746;28;19917;-88
2023/05/28 02:01:20;;;;;;;;;;;;;;;19.22;100.00;99722.41;5022241;28;19963;-89
2023/05/28 02:03:46;;;;;;;;;;;;;;;19.27;100.00;99718.31;5013563;28;19918;-88
2023/05/28 02:06:11;;;;;;;;;;;;;;;19.27;100.00;99718.31;5020470;28;19920;-88
2023/05/28 02:08:37;;;;;;;;;;;;;;;19.29;100.00;99710.94;5016305;28;19929;-88
2023/05/28 02:11:02;;;;;;;;;;;;;;;19.26;100.00;99703.31;5018452;28;19918;-89
2023/05/28 02:13:27;;;;;;;;;;;;;;;19.28;100.00;99706.59;5016119;28;19917;-88
2023/05/28 02:15:56;;;;;;;;;;;;;;;19.30;100.00;99701.88;5026447;28;19918;-88
2023/05/28 02:18:22;;;;;;;;;;;;;;;19.31;100.00;99703.56;5012732;28;19959;-89
2023/05/28 02:23:27;;;;;;;;;;;;;;;19.33;100.00;99701.50;5030363;28;20271;-74
2023/05/28 02:25:53;;;;;;;;;;;;;;;19.33;100.00;99696.97;5030227;28;19924;-75
2023/05/28 02:28:18;;;;;;;;;;;;;;;19.28;100.00;99694.06;5026138;28;19917;-75
2023/05/28 02:30:43;;;;;;;;;;;;;;;19.18;100.00;99697.09;5033918;28;19917;-75
2023/05/28 02:33:09;;;;;;;;;;;;;;;19.18;100.00;99697.09;5017072;28;19917;-75
2023/05/28 02:35:34;;;;;;;;;;;;;;;19.09;100.00;99690.22;5012750;28;19917;-75
2023/05/28 02:38:00;;;;;;;;;;;;;;;19.11;100.00;99693.53;5016792;28;19924;-75
2023/05/28 02:40:26;;;;;;;;;;;;;;;19.08;100.00;99696.59;5012473;28;19917;-74
2023/05/28 02:42:51;;;;;;;;;;;;;;;19.06;100.00;99690.59;5016516;28;20280;-75
2023/05/28 02:45:16;;;;;;;;;;;;;;;19.02;100.00;99700.06;5012672;28;19916;-75
2023/05/28 02:47:42;;;;;;;;;;;;;;;19.05;100.00;99696.16;5027834;28;20015;-75
2023/05/28 02:50:07;;;;;;;;;;;;;;;19.03;100.00;99695.50;5013022;28;19924;-75
2023/05/28 02:52:56;;;;;;;;;;;;;;;18.97;100.00;99691.75;5034185;28;19944;-75
2023/05/28 02:55:21;;;;;;;;;;;;;;;18.89;100.00;99693.75;5013528;28;20270;-75
2023/05/28 02:57:46;;;;;;;;;;;;;;;18.77;100.00;99693.44;5028480;28;19996;-75
2023/05/28 03:00:13;;;;;;;;;;;;;;;18.63;100.00;99688.97;5024644;28;19916;-75
2023/05/28 03:02:38;;;;;;;;;;;;;;;18.48;100.00;99690.88;5015695;28;20373;-74
2023/05/28 03:05:05;;;;;;;;;;;;;;;18.40;100.00;99697.97;5014510;28;20435;-75
2023/05/28 03:07:30;;;;;;;;;;;;;;;18.26;100.00;99704.19;5013994;28;19929;-75
2023/05/28 03:09:56;;;;;;;;;;;;;;;18.26;100.00;99698.03;5015314;28;19917;-73
2023/05/28 03:12:22;;;;;;;;;;;;;;;18.35;100.00;99697.72;5012823;28;19917;-75
2023/05/28 03:14:47;;;;;;;;;;;;;;;18.45;100.00;99699.25;5012899;28;20365;-74
2023/05/28 03:17:12;;;;;;;;;;;;;;;18.51;100.00;99695.81;5012354;28;19929;-76
2023/05/28 03:19:38;;;;;;;;;;;;;;;18.58;100.00;99704.78;5028504;28;19921;-75
2023/05/28 03:22:04;;;;;;;;;;;;;;;18.64;100.00;99710.19;5023892;28;19916;-75
2023/05/28 03:24:34;;;;;;;;;;;;;;;18.68;100.00;99713.28;5013977;28;19917;-75
2023/05/28 03:27:00;;;;;;;;;;;;;;;18.72;100.00;99706.56;5014622;28;19979;-75
2023/05/28 03:29:27;;;;;;;;;;;;;;;18.70;100.00;99716.59;5013027;28;19918;-74
2023/05/28 03:32:07;;;;;;;;;;;;;;;18.72;100.00;99726.09;5015384;28;19923;-75
2023/05/28 03:34:33;;;;;;;;;;;;;;;18.67;100.00;99722.34;5027209;28;19957;-74
2023/05/28 03:36:58;;;;;;;;;;;;;;;18.63;100.00;99715.72;5029346;28;19917;-75
2023/05/28 03:39:24;;;;;;;;;;;;;;;18.66;100.00;99710.00;5015094;28;19917;-75
2023/05/28 03:41:51;;;;;;;;;;;;;;;18.68;100.00;99710.63;5011556;28;19921;-75
2023/05/28 03:44:18;;;;;;;;;;;;;;;18.72;100.00;99715.41;5011385;28;19932;-75
2023/05/28 03:46:43;;;;;;;;;;;;;;;18.73;100.00;99721.59;5015729;28;20296;-75
2023/05/28 03:49:09;;;;;;;;;;;;;;;18.74;100.00;99720.53;5015352;28;19923;-75
2023/05/28 03:51:34;;;;;;;;;;;;;;;18.75;100.00;99714.19;5032313;28;20016;-75
2023/05/28 03:54:00;;;;;;;;;;;;;;;18.61;100.00;99720.44;5014761;28;20028;-75
2023/05/28 03:56:27;;;;;;;;;;;;;;;18.46;100.00;99725.78;5015190;28;19917;-74
2023/05/28 03:58:53;;;;;;;;;;;;;;;18.39;100.00;99728.38;5014966;28;20270;-74
2023/05/28 04:01:19;;;;;;;;;;;;;;;18.42;100.00;99724.53;5007623;28;19917;-75
2023/05/28 04:03:44;;;;;;;;;;;;;;;18.39;100.00;99728.38;5013700;28;19917;-74
2023/05/28 04:06:10;;;;;;;;;;;;;;;18.34;100.00;99717.44;5015121;28;20405;-73
2023/05/28 04:08:35;;;;;;;;;;;;;;;18.38;100.00;99734.75;5023353;28;19925;-74
2023/05/28 04:11:01;;;;;;;;;;;;;;;18.40;100.00;99727.38;5014141;28;19925;-74
2023/05/28 04:13:27;;;;;;;;;;;;;;;18.27;100.00;99727.22;5013336;28;19920;-74
2023/05/28 04:15:53;;;;;;;;;;;;;;;18.17;100.00;99725.88;5012504;28;19918;-74
2023/05/28 04:18:18;;;;;;;;;;;;;;;18.14;100.00;99723.59;5014776;28;19920;-73
2023/05/28 04:20:43;;;;;;;;;;;;;;;17.99;100.00;99718.25;5029676;28;19917;-74
2023/05/28 04:23:09;;;;;;;;;;;;;;;17.88;100.00;99716.88;5026852;28;19996;-75
2023/05/28 04:25:36;;;;;;;;;;;;;;;17.85;100.00;99721.75;5032304;28;20004;-76
2023/05/28 04:28:01;;;;;;;;;;;;;;;17.83;100.00;99719.28;5013543;28;19921;-73
2023/05/28 04:30:27;;;;;;;;;;;;;;;17.83;100.00;99723.81;5012330;28;19995;-72
2023/05/28 04:32:52;;;;;;;;;;;;;;;17.77;100.00;99721.88;5012898;28;19924;-73
2023/05/28 04:35:18;;;;;;;;;;;;;;;17.85;100.00;99727.09;5013955;28;19916;-74
2023/05/28 04:37:44;;;;;;;;;;;;;;;17.99;100.00;99731.59;5006192;28;19917;-74
2023/05/28 04:40:12;;;;;;;;;;;;;;;18.00;100.00;99730.59;5015244;28;20296;-74
2023/05/28 04:42:38;;;;;;;;;;;;;;;17.98;100.00;99716.59;5015186;28;19952;-74
2023/05/28 04:45:04;;;;;;;;;;;;;;;17.93;100.00;99727.00;5015208;28;19917;-74
2023/05/28 04:47:30;;;;;;;;;;;;;;;17.96;100.00;99729.31;5014368;28;19921;-72
2023/05/28 04:49:59;;;;;;;;;;;;;;;17.97;100.00;99722.94;5012732;28;19925;-74
2023/05/28 04:52:24;;;;;;;24.85;20.77;;;;;;;17.99;100.00;99711.06;5012519;28;20008;-74
2023/05/28 04:54:50;;;;;;;;;;;;;;;17.91;100.00;99707.66;5014711;28;20192;-74
2023/05/28 04:57:15;;;;;;;;;;;;;;;17.93;100.00;99708.31;5023888;28;19917;-76
2023/05/28 04:59:41;;;;;;;;;;;;;;;18.01;100.00;99710.91;5014099;28;19924;-73
2023/05/28 05:02:07;;;;;;;;;;;;;;;18.05;100.00;99700.66;5013196;28;19913;-73
2023/05/28 05:04:32;;;;;;;;;;;;;;;18.07;100.00;99710.16;5029749;28;20032;-74
2023/05/28 05:06:58;;;;;;;;;;;;;;;18.11;100.00;99710.59;5025285;28;19960;-73
2023/05/28 05:09:23;;;;;;;;;;;;;;;18.12;100.00;99717.59;5009487;28;19952;-74
2023/05/28 05:11:49;;;;;;;;;;;;;;;18.20;100.00;99718.28;5029330;28;19917;-73
2023/05/28 05:14:14;;;;;;;;;;;;;;;18.30;100.00;99716.16;5013857;28;19913;-73
2023/05/28 05:16:40;;;;;;;;;;;;;;;18.39;100.00;99714.19;5011689;28;19918;-73
2023/05/28 05:19:06;;;;;;;;;;;;;;;18.47;100.00;99715.94;5012678;28;19917;-74
2023/05/28 05:21:31;;;;;;;;;;;;;;;18.53;100.00;99712.50;5023565;28;19925;-73
2023/05/28 05:23:57;;;;;;;;;;;;;;;18.61;100.00;99707.06;5030262;28;19916;-73
2023/05/28 05:26:23;;;;;;;;;;;;;;;18.64;100.00;99706.69;5011777;28;19917;-74
2023/05/28 05:28:48;;;;;;;;;;;;;;;18.69;100.00;99693.56;5010555;28;19967;-74
2023/05/28 05:31:15;;;;;;;;;;;;;;;18.72;100.00;99698.53;5028653;28;20276;-74
2023/05/28 05:33:41;;;;;;;;;;;;;;;18.79;100.00;99699.44;5013259;28;19917;-74
2023/05/28 05:36:24;;;;;;;;;;;;;;;18.77;100.00;99694.28;5008312;28;20349;-74
2023/05/28 05:39:16;;;;;;;;;;;;;;;18.85;100.00;99701.31;5022356;28;19917;-74
2023/05/28 05:41:56;;;;;;;;;;;;;;;18.89;100.00;99705.28;5010578;28;20008;-74
2023/05/28 05:44:28;;;;;;;;;;;;;;;18.91;100.00;99703.22;5028181;28;19917;-74
2023/05/28 05:46:54;;;;;;;;;;;;;;;18.96;100.00;99694.66;5012993;28;20011;-74
2023/05/28 05:49:19;;;;;;;;;;;;;;;18.93;100.00;99690.50;5011272;28;19917;-74
2023/05/28 05:51:45;;;;;;;;;;;;;;;18.94;100.00;99692.16;5017700;28;19921;-73
2023/05/28 05:54:11;;;;;;;;;;;;;;;18.96;100.00;99682.09;5012706;28;20416;-74
2023/05/28 05:56:37;;;;;;;;;;;;;;;18.97;100.00;99691.75;5014972;28;20047;-74
2023/05/28 05:59:02;;;;;;;;;;;;;;;18.99;100.00;99689.72;5016059;28;20050;-74
2023/05/28 06:01:29;;;;;;;;;;;;;;;19.07;100.00;99697.63;5013287;28;20298;-73
2023/05/28 06:03:56;;;;;;;;;;;;;;;19.04;100.00;99692.63;5017438;28;20369;-74
2023/05/28 06:06:50;;;;;;;;;;;;;;;19.12;100.00;99684.47;5011534;28;20349;-74
2023/05/28 06:09:40;;;;;;;;;;;;;;;19.19;100.00;99679.19;5031352;28;20408;-76
2023/05/28 06:12:17;;;;;;;;;;;;;;;19.23;100.00;99683.94;5016398;28;19964;-74
2023/05/28 06:14:42;;;;;;;;;;;;;;;19.34;100.00;99679.06;5026031;28;20317;-75
2023/05/28 06:17:09;;;;;;;;;;;;;;;19.38;100.00;99683.03;5017673;28;19975;-74
2023/05/28 06:19:34;;;;;;;;;;;;;;;19.42;100.00;99687.78;5016011;28;19918;-74
2023/05/28 06:22:02;;;;;;;;;;;;;;;19.51;100.00;99688.47;5029042;28;19928;-75
2023/05/28 06:24:28;;;;;;;;;;;;;;;19.48;100.00;99684.34;5015545;28;20003;-75
2023/05/28 06:26:54;;;;;;;;;;;;;;;19.53;100.00;99678.41;5014303;28;20384;-75
2023/05/28 06:29:20;;;;;;;;;;;;;;;19.58;100.00;99683.97;5016788;28;19917;-75
2023/05/28 06:31:45;;;;;;;;;;;;;;;19.57;100.00;99679.66;5012871;28;19925;-75
2023/05/28 06:34:11;;;;;;;;;;;;;;;19.60;100.00;99687.31;5013898;28;20029;-75
2023/05/28 06:36:36;;;;;;;;;;;;;;;19.68;100.00;99691.63;5032398;28;19917;-75
2023/05/28 06:39:03;;;;;;;;;;;;;;;19.74;100.00;99689.00;5012509;28;20365;-75
2023/05/28 06:41:30;;;;;;;;;;;;;;;19.70;100.00;99693.09;5016524;28;19924;-75
2023/05/28 06:43:56;;;;;;;;;;;;;;;19.71;100.00;99689.41;5015874;28;20297;-75
2023/05/28 06:46:40;;;;;;;;;;;;;;;19.72;100.00;99685.72;5031453;28;20388;-74
2023/05/28 06:49:06;;;;;;;;;;;;;;;19.87;100.00;99686.41;5015877;28;19917;-74
2023/05/28 06:51:32;;;;;;;;;;;;;;;19.96;100.00;99689.75;5030075;28;19924;-73
2023/05/28 06:53:57;;;;;;;;;;;;;;;20.05;100.00;99685.84;5014152;28;19953;-74
2023/05/28 06:56:26;;;;;;;;;;;;;;;20.11;100.00;99689.56;5013611;28;20277;-74
2023/05/28 06:59:24;;;;;;;;;;;;;;;20.20;100.00;99685.72;4997325;28;20008;-75
2023/05/28 07:02:08;;;;;;;;;;;;;;;20.31;100.00;99687.78;5015895;28;19918;-75
2023/05/28 07:04:50;;;;;;;;;;;;;;;20.34;100.00;99690.09;5013195;28;19917;-75
2023/05/28 07:07:20;;;;;;;;;;;;;;;20.39;100.00;99690.31;5010813;28;20377;-74
2023/05/28 07:09:46;;;;;;;;;;;;;;;20.40;100.00;99690.09;5012392;28;19917;-75
2023/05/28 07:12:12;;;;;;;;;;;;;;;20.36;100.00;99682.69;5016414;28;20404;-74
2023/05/28 07:14:43;;;;;;;;;;;;;;;20.50;100.00;99687.03;5014454;28;19940;-75
2023/05/28 07:17:09;;;;;;;;;;;;;;;20.61;100.00;99686.44;5017340;28;20358;-75
2023/05/28 07:19:35;;;;;;;;;;;;;;;20.72;100.00;99691.22;5014036;28;20357;-75
2023/05/28 07:22:00;;;;;;;;;;;;;;;20.75;100.00;99681.91;5026956;28;19925;-75
2023/05/28 07:24:26;;;;;;;;;;;;;;;20.72;100.00;99690.38;5014028;28;19942;-74
2023/05/28 07:26:51;;;;;;;;;;;;;;;20.80;100.00;99692.84;5029343;28;20023;-74
2023/05/28 07:29:18;;;;;;;;;;;;;;;20.87;100.00;99685.63;5015645;28;19964;-74
2023/05/28 07:31:44;;;;;;;;;;;;;;;20.81;100.00;99686.44;4998583;28;19956;-74
2023/05/28 07:34:10;;;;;;;;;;;;;;;20.81;100.00;99687.28;5013035;28;20420;-75
2023/05/28 07:36:37;;;;;;;;;;;;;;;20.87;100.00;99685.63;5014523;28;20018;-75
2023/05/28 07:39:03;;;;;;;;;;;;;;;21.00;100.00;99684.81;5013757;28;19963;-75
2023/05/28 07:41:29;;;;;;;;;;;;;;;21.08;100.00;99687.28;5009316;28;19913;-75
2023/05/28 07:43:59;;;;;;;;;;;;;;;21.18;100.00;99685.03;5011826;28;19921;-75
2023/05/28 07:46:26;;;;;;;;;;;;;;;21.29;100.00;99689.78;5010539;28;20675;-74
2023/05/28 07:49:02;;;;;;;;;;;;;;;21.39;100.00;99689.34;5012737;28;20011;-75
2023/05/28 07:51:31;;;;;;;;;;;;;;;21.38;100.00;99688.53;5014122;28;19957;-74
2023/05/28 07:54:03;;;;;;;;;;;;;;;21.43;100.00;99690.59;5014826;28;19956;-75
2023/05/28 07:56:28;;;;;;;;;;;;;;;21.49;100.00;99679.84;5013592;28;20412;-74
2023/05/28 07:58:55;;;;;;;;;;;;;;;21.48;100.00;99680.88;5014481;28;19960;-75
2023/05/28 08:01:22;;;;;;;;;;;;;;;21.57;100.00;99682.28;5015482;28;19956;-75
2023/05/28 08:03:53;;;;;;;;;;;;;;;21.69;100.00;99685.13;5008715;28;20423;-75
2023/05/28 08:06:24;;;;;;;;;;;;;;;21.76;100.00;99690.50;5011962;28;20361;-74
2023/05/28 08:08:49;;;;;;;;;;;;;;;21.77;100.00;99686.78;5016382;28;19947;-75
2023/05/28 08:11:16;;;;;;;;;;;;;;;21.85;100.00;99678.50;4991376;28;19921;-76
2023/05/28 08:13:41;;;;;;;;;;;;;;;22.00;100.00;99677.22;5015977;28;19998;-76
2023/05/28 08:16:14;;;;;;;;;;;;;;;22.05;100.00;99680.06;5015709;28;19925;-75
2023/05/28 08:19:15;;;;;;;;;;;;;;;22.12;100.00;99676.53;5011799;28;20385;-76
2023/05/28 08:21:42;;;;;;;;;;;;;;;22.11;100.00;99675.72;5014530;28;19917;-75
2023/05/28 08:24:10;;;;;;;;;;;;;;;22.14;100.00;99677.16;5014608;28;19941;-84
2023/05/28 08:26:35;;;;;;;;;;;;;;;22.05;100.00;99674.69;5010133;28;19924;-78
2023/05/28 08:29:00;;;;;;;;;;;;;;;22.11;100.00;99677.56;5010561;28;19921;-77
2023/05/28 08:31:29;;;;;;;;;;;;;;;22.22;100.00;99675.03;5015074;28;20385;-78
2023/05/28 08:34:08;;;;;;;;;;;;;;;22.26;100.00;99668.19;5011271;28;19981;-78
2023/05/28 08:36:35;;;;;;;;;;;;;;;22.37;100.00;99662.13;5014908;28;20055;-77
2023/05/28 08:39:01;;;;;;;;;;;;;;;22.36;100.00;99671.22;5012652;28;19963;-74
2023/05/28 08:41:27;;;;;;;;;;;;;;;22.40;100.00;99672.44;5010329;28;19952;-74
2023/05/28 08:43:53;;;;;;;;;;;;;;;22.52;100.00;99671.75;5013903;28;20425;-74
2023/05/28 08:46:19;;;;;;;;;;;;;;;22.61;100.00;99670.47;5005634;28;19918;-74
2023/05/28 08:49:17;;;;;;;;;;;;;;;22.71;100.00;99666.25;5010401;28;20424;-74
2023/05/28 08:51:43;;;;;;;;;;;;;;;22.78;100.00;99668.91;5030512;28;19924;-74
2023/05/28 08:54:09;;;;;;;;;;;;;;;22.81;100.00;99657.69;5013415;28;19925;-74
2023/05/28 08:56:35;;;;;;;;;;;;;;;22.88;100.00;99657.66;5012262;28;19917;-74
2023/05/28 08:59:04;;;;;;;;;;;;;;;22.88;100.00;99657.66;5013471;28;20404;-74
2023/05/28 09:01:29;;;;;;;;;;;;;;;22.95;100.00;99653.88;5011403;28;19917;-74
2023/05/28 09:04:06;;;;;;;;;;;;;;;22.90;100.00;99655.56;5009571;28;19917;-74
2023/05/28 09:06:37;;;;;;;;;;;;;;;22.79;100.00;99654.44;5011251;28;19917;-74
2023/05/28 09:09:04;;;;;;;;;;;;;;;22.87;100.00;99646.06;5012909;28;19916;-73
2023/05/28 09:11:43;;;;;;;;;;;;;;;22.93;100.00;99644.34;5011720;28;20004;-74
2023/05/28 09:14:12;;;;;;;;;;;;;;;22.96;100.00;99639.38;5013058;28;20270;-74
2023/05/28 09:16:41;;;;;;;;;;;;;;;23.08;100.00;99647.53;5012543;28;19956;-74
2023/05/28 09:19:10;;;;;;;;;;;;;;;23.08;100.00;99640.31;5012891;28;19928;-74
2023/05/28 09:21:37;;;;;;;;;;;;;;;23.14;100.00;99631.34;5006359;28;20718;-74
2023/05/28 09:24:06;;;;;;;;;;;;;;;23.18;100.00;99627.16;5008781;28;19916;-74
2023/05/28 09:27:06;;;;;;;;;;;;;;;23.26;100.00;99634.13;5013041;28;20020;-73
2023/05/28 09:29:32;;;;;;;;;;;;;;;23.21;100.00;99626.69;5009386;28;19963;-74
2023/05/28 09:31:59;;;;;;;;;;;;;;;23.24;100.00;99636.19;5029762;28;19955;-74
2023/05/28 09:34:25;;;;;;;;;;;;;;;23.23;100.00;99630.00;5024934;28;19979;-73
2023/05/28 09:36:51;;;;;;;;;;;;;;;23.30;100.00;99635.31;5026827;28;19917;-73
2023/05/28 09:39:17;;;;;;;;;;;;;;;23.35;100.00;99631.94;5026856;28;19917;-74
2023/05/28 09:41:44;;;;;;;;;;;;;;;23.46;100.00;99629.34;5027709;28;19979;-73
2023/05/28 09:44:10;;;;;;;;;;;;;;;23.53;100.00;99623.91;5025632;28;19925;-75
2023/05/28 09:46:36;;;;;;;;;;;;;;;23.58;100.00;99622.19;5026107;28;20020;-76
2023/05/28 09:49:02;;;;;;;;;;;;;;;23.68;100.00;99618.94;5023567;28;20025;-74
2023/05/28 09:51:31;;;;;;;;;;;;;;;23.67;100.00;99625.41;5029606;28;20260;-73
2023/05/28 09:53:58;;;;;;;;;;;;;;;23.63;100.00;99622.31;5027489;28;19917;-74
2023/05/28 09:56:29;;;;;;;;;;;;;;;23.63;100.00;99619.63;5012126;28;20337;-74
2023/05/28 09:58:59;;;;;;;;;;;;;;;23.61;100.00;99615.53;5026365;28;20000;-74
2023/05/28 10:01:25;;;;;;;;;;;;;;;23.53;100.00;99611.25;5025590;28;19985;-73
2023/05/28 10:03:56;;;;;;;;;;;;;;;23.41;100.00;99620.28;5025875;28;19918;-74
2023/05/28 10:06:23;;;;;;;;;;;;;;;23.39;100.00;99606.19;5026047;28;19921;-74
2023/05/28 10:08:53;;;;;;;;;;;;;;;23.44;100.00;99609.91;5023662;28;19917;-74
2023/05/28 10:11:21;;;;;;;;;;;;;;;23.49;100.00;99617.31;5027310;28;19917;-74
2023/05/28 10:13:46;;;;;;;;;;;;;;;23.51;100.00;99604.44;5025558;28;19964;-75
2023/05/28 10:16:12;;;;;;;;;;;;;;;23.51;100.00;99609.81;5025967;28;20048;-74
2023/05/28 10:18:38;;;;;;;;;;;;;;;23.56;100.00;99618.09;5026918;28;19921;-74
2023/05/28 10:21:05;;;;;;;;;;;;;;;23.67;100.00;99611.94;5025349;28;20051;-74
2023/05/28 10:23:31;;;;;;;;;;;;;;;23.67;100.00;99614.63;5028395;28;20342;-74
2023/05/28 10:25:56;;;;;;;;;;;;;;;23.69;100.00;99604.44;5027655;28;20011;-74
2023/05/28 10:28:22;;;;;;;;;;;;;;;23.71;100.00;99605.03;5024988;28;19917;-75
2023/05/28 10:30:59;;;;;;;;;;;;;;;23.71;100.00;99598.81;5026527;28;19916;-75
2023/05/28 10:33:24;;;;;;;;;;;;;;;23.74;100.00;99604.56;5027729;28;20308;-75
2023/05/28 10:35:52;;;;;;;;;;;;;;;23.73;100.00;99594.88;5026495;28;19921;-75
2023/05/28 10:38:18;;;;;;;;;;;;;;;23.72;100.00;99595.09;5012436;28;20342;-76
2023/05/28 10:40:43;;;;;;;;;;;;;;;23.77;100.00;99596.03;5028435;28;19964;-74
2023/05/28 10:43:27;;;;;;;;;;;;;;;23.83;100.00;99591.63;5033893;28;20031;-73
2023/05/28 10:45:55;;;;;;;;;;;;;;;23.92;100.00;99582.97;5029263;28;19948;-74
2023/05/28 10:48:20;;;;;;;;;;;;;;;23.85;100.00;99586.84;5030614;28;19923;-76
2023/05/28 10:50:55;;;;;;;;;;;;;;;23.90;100.00;99579.72;5029484;28;20012;-74
2023/05/28 10:53:20;;;;;;;;;;;;;;;23.92;100.00;99574.88;5030422;28;19949;-74
2023/05/28 10:55:53;;;;;;;;;;;;;;;23.81;100.00;99566.75;5027410;28;20036;-74
2023/05/28 10:58:28;;;;;;;;;;;;;;;23.84;100.00;99566.31;5030660;28;19921;-75
2023/05/28 11:01:20;;;;;;;;;;;;;;;23.85;100.00;99562.59;5029042;28;20341;-74
2023/05/28 11:03:53;;;;;;;;;;;;;;;23.87;100.00;99558.59;5025425;28;19918;-74
2023/05/28 11:06:19;;;;;;;;;;;;;;;23.94;100.00;99556.63;5029850;28;19924;-74
2023/05/28 11:08:45;;;;;;;;;;;;;;;24.09;100.00;99553.53;5025034;28;19917;-73
2023/05/28 11:11:12;;;;;;;;;;;;;;;24.23;100.00;99554.97;5031683;28;19917;-74
2023/05/28 11:13:38;;;;;;;;;;;;;;;24.35;100.00;99546.91;5015417;28;19917;-74
2023/05/28 11:16:07;;;;;;;;;;;;;;;24.43;100.00;99549.28;5029746;28;19917;-74
2023/05/28 11:18:32;;;;;;;;;;;;;;;24.51;100.00;99543.53;5028736;28;19996;-74
2023/05/28 11:21:08;;;;;;;;;;;;;;;24.61;100.00;99546.50;5025616;28;19967;-75
2023/05/28 11:23:37;;;;;;;;;;;;;;;24.59;100.00;99548.59;5030842;28;19921;-75
2023/05/28 11:26:03;;;;;;;;;;;;;;;24.54;100.00;99540.38;5027094;28;20011;-74
2023/05/28 11:28:29;;;;;;;;;;;;;;;24.56;100.00;99532.88;5027386;28;20374;-73
2023/05/28 11:30:58;;;;;;;;;;;;;;;24.59;100.00;99534.28;5031305;28;20028;-75
2023/05/28 11:33:27;;;;;;;;;;;;;;;24.63;100.00;99522.78;5028293;28;20290;-75
2023/05/28 11:35:57;;;;;;;;;;;;;;;24.74;98.88;99519.25;5028613;28;19921;-73
2023/05/28 11:38:22;;;;;;;;;;;;;;;24.83;97.78;99517.84;5029807;28;20003;-74
2023/05/28 11:40:48;;;;;;;;;;;;;;;24.92;98.13;99515.63;5029165;28;20004;-73
2023/05/28 11:43:13;;;;;;;;;;;;;;;25.06;99.04;99513.50;5031585;28;19921;-73
2023/05/28 11:45:39;;;;;;;;;;;;;;;25.18;99.31;99519.72;5023272;28;19917;-74
2023/05/28 11:48:10;;;;;;;;;;;;;;;25.33;98.80;99511.13;5028838;28;19983;-73
2023/05/28 11:50:35;;;;;;;;;;;;;;;25.46;97.87;99506.22;5013110;28;19917;-74
2023/05/28 11:53:00;;;;;;;;;;;;;;;25.52;99.27;99509.84;5032216;28;20242;-75
2023/05/28 11:55:26;;;;;;;;;;;;;;;25.58;99.29;99507.03;5027409;28;19946;-75
2023/05/28 11:57:55;;;;;;;;;;;;;;;25.65;98.60;99499.63;5029682;28;19928;-74
2023/05/28 12:00:28;;;;;;;;;;;;;;;25.59;97.67;99500.56;5025290;28;20313;-75
2023/05/28 12:02:54;;;;;;;;;;;;;;;25.51;95.70;99492.81;5028595;28;19923;-74
2023/05/28 12:05:20;;;;;;;;;;;;;;;25.47;95.95;99494.38;5026690;28;20019;-75
2023/05/28 12:07:49;;;;;;;;;;;;;;;25.42;97.03;99493.44;5028611;28;19920;-74
2023/05/28 12:10:16;;;;;;;;;;;;;;;25.40;96.50;99485.59;5026731;28;20345;-74
2023/05/28 12:12:43;;;;;;;;;;;;;;;25.45;96.88;99485.66;5030569;28;19921;-74
2023/05/28 12:15:09;;;;;;;;;;;;;;;25.49;97.61;99484.16;5025105;28;19921;-75
2023/05/28 12:17:37;;;;;;;;;;;;;;;25.56;98.43;99479.47;5029319;28;20011;-71
2023/05/28 12:20:05;;;;;;;;;;;;;;;25.53;96.22;99479.91;5028223;28;20071;-76
2023/05/28 12:22:30;;;;;;;;;;;;;;;25.77;95.81;99480.63;5028473;28;19963;-76
2023/05/28 12:24:55;;;;;;;;;;;;;;;26.10;94.69;99477.97;5026972;28;20014;-74
2023/05/28 12:27:21;;;;;;;;;;;;;;;26.44;90.46;99476.13;5028847;28;19924;-72
2023/05/28 12:29:46;;;;;;;;;;;;;;;26.78;88.85;99471.47;5011002;28;20012;-74
2023/05/28 12:32:12;;;;;;;;;;;;;;;27.01;87.56;99459.59;5030907;28;19917;-74
2023/05/28 12:34:37;;;;;;;;;;;;;;;27.32;85.62;99459.97;5026488;28;19917;-74
2023/05/28 12:37:03;;;;;;;;;;;;;;;27.50;84.11;99454.22;5023978;28;19929;-74
2023/05/28 12:39:29;;;;;;;;;;;;;;;27.38;83.99;99448.13;5029135;28;19975;-73
2023/05/28 12:41:54;;;;;;;;;;;;;;;26.88;84.29;99443.72;5028244;28;20027;-74
2023/05/28 12:44:20;;;;;;;;;;;;;;;26.50;85.85;99449.94;5024609;28;19923;-74